createdAt,value
2017-12-15T05:00:47.603Z,0
2017-12-15T05:01:13.101Z,0
2017-12-15T05:01:38.596Z,0
2017-12-15T05:02:04.087Z,0
2017-12-15T05:02:29.581Z,0
2017-12-15T05:02:55.079Z,0
2017-12-15T05:03:20.544Z,0
2017-12-15T05:03:46.038Z,0
2017-12-15T05:04:11.523Z,0
2017-12-15T05:04:37.026Z,0
2017-12-15T05:05:02.539Z,0
2017-12-15T05:05:28.047Z,0
2017-12-15T05:05:53.526Z,0
2017-12-15T05:06:18.999Z,0
2017-12-15T05:07:48.090Z,0
2017-12-15T05:08:13.565Z,0
2017-12-15T05:08:39.054Z,0
2017-12-15T05:09:04.530Z,0
2017-12-15T05:09:30.048Z,0
2017-12-15T05:09:55.554Z,0
2017-12-15T05:10:21.022Z,0
2017-12-15T05:10:46.532Z,0
2017-12-15T05:11:12.006Z,0
2017-12-15T05:11:37.504Z,0
2017-12-15T05:12:03.022Z,0
2017-12-15T05:12:28.490Z,0
2017-12-15T05:12:53.981Z,0
2017-12-15T05:13:19.534Z,0
2017-12-15T05:13:45.063Z,0
2017-12-15T05:14:10.527Z,0
2017-12-15T05:14:35.990Z,0
2017-12-15T05:15:01.493Z,0
2017-12-15T05:15:26.991Z,0
2017-12-15T05:15:52.475Z,0
2017-12-15T05:16:17.976Z,0
2017-12-15T05:16:43.492Z,0
2017-12-15T05:17:09.004Z,0
2017-12-15T05:17:34.468Z,0
2017-12-15T05:17:59.947Z,0
2017-12-15T05:18:25.432Z,0
2017-12-15T05:19:54.582Z,0
2017-12-15T05:20:20.063Z,0
2017-12-15T05:20:45.559Z,0
2017-12-15T05:21:11.059Z,0
2017-12-15T05:21:36.563Z,0
2017-12-15T05:22:02.055Z,0
2017-12-15T05:22:27.543Z,0
2017-12-15T05:22:53.062Z,0
2017-12-15T05:23:18.532Z,0
2017-12-15T05:23:44.028Z,0
2017-12-15T05:24:09.514Z,0
2017-12-15T05:24:35.002Z,0
2017-12-15T05:25:00.512Z,0
2017-12-15T05:25:26.020Z,0
2017-12-15T05:25:51.501Z,0
2017-12-15T05:26:16.968Z,0
2017-12-15T05:26:42.475Z,0
2017-12-15T05:27:07.957Z,0
2017-12-15T05:27:33.448Z,0
2017-12-15T05:27:58.951Z,0
2017-12-15T05:28:24.463Z,0
2017-12-15T05:28:49.952Z,0
2017-12-15T05:29:15.447Z,0
2017-12-15T05:29:40.905Z,0
2017-12-15T05:30:06.473Z,0
2017-12-15T05:30:31.894Z,0
2017-12-15T05:30:57.395Z,0
2017-12-15T05:31:22.878Z,0
2017-12-15T05:31:48.376Z,0
2017-12-15T05:32:13.865Z,0
2017-12-15T05:32:39.362Z,0
2017-12-15T05:33:04.847Z,0
2017-12-15T05:33:30.365Z,0
2017-12-15T05:33:55.859Z,0
2017-12-15T05:34:21.330Z,0
2017-12-15T05:34:46.846Z,0
2017-12-15T05:36:05.759Z,0
2017-12-15T05:36:31.254Z,0
2017-12-15T05:36:56.746Z,0
2017-12-15T05:37:22.254Z,0
2017-12-15T05:37:47.782Z,0
2017-12-15T05:38:13.233Z,0
2017-12-15T05:38:38.716Z,0
2017-12-15T05:39:04.222Z,0
2017-12-15T05:39:29.698Z,0
2017-12-15T05:39:55.199Z,0
2017-12-15T05:40:20.702Z,0
2017-12-15T05:40:46.236Z,0
2017-12-15T05:41:11.734Z,0
2017-12-15T05:41:37.211Z,0
2017-12-15T05:42:02.709Z,0
2017-12-15T05:43:32.023Z,0
2017-12-15T05:43:57.314Z,0
2017-12-15T05:44:22.794Z,0
2017-12-15T05:44:48.305Z,0
2017-12-15T05:45:13.808Z,0
2017-12-15T05:45:39.299Z,0
2017-12-15T05:46:04.789Z,0
2017-12-15T05:46:30.323Z,0
2017-12-15T05:46:55.792Z,0
2017-12-15T05:47:21.277Z,0
2017-12-15T05:47:46.752Z,0
2017-12-15T05:48:12.251Z,0
2017-12-15T05:48:37.757Z,0
2017-12-15T05:49:03.276Z,0
2017-12-15T05:49:28.756Z,0
2017-12-15T05:49:54.239Z,0
2017-12-15T05:50:19.719Z,0
2017-12-15T05:50:45.235Z,0
2017-12-15T05:51:10.707Z,0
2017-12-15T05:51:36.193Z,0
2017-12-15T05:52:01.696Z,0
2017-12-15T05:52:27.191Z,0
2017-12-15T05:52:52.692Z,0
2017-12-15T05:53:18.204Z,0
2017-12-15T05:53:43.684Z,0
2017-12-15T05:54:09.166Z,0
2017-12-15T05:54:34.674Z,0
2017-12-15T05:55:00.180Z,0
2017-12-15T05:55:25.648Z,0
2017-12-15T05:55:51.138Z,0
2017-12-15T05:56:16.604Z,0
2017-12-15T05:56:42.105Z,0
2017-12-15T05:57:07.612Z,0
2017-12-15T05:57:33.131Z,0
2017-12-15T05:57:58.605Z,0
2017-12-15T05:58:24.134Z,0
2017-12-15T05:58:49.623Z,0
2017-12-15T05:59:15.113Z,0
2017-12-15T05:59:40.618Z,0
2017-12-15T06:00:06.123Z,0
2017-12-15T06:00:31.634Z,0
2017-12-15T06:00:57.119Z,0
2017-12-15T06:01:22.604Z,0
2017-12-15T06:01:48.100Z,0
2017-12-15T06:02:13.607Z,0
2017-12-15T06:02:39.108Z,0
2017-12-15T06:03:04.595Z,0
2017-12-15T06:03:30.094Z,0
2017-12-15T06:03:55.594Z,0
2017-12-15T06:04:21.067Z,0
2017-12-15T06:04:46.572Z,0
2017-12-15T06:05:12.077Z,0
2017-12-15T06:05:37.580Z,0
2017-12-15T06:06:03.086Z,0
2017-12-15T06:06:28.580Z,0
2017-12-15T06:06:54.062Z,0
2017-12-15T06:07:19.572Z,0
2017-12-15T06:07:45.079Z,0
2017-12-15T06:08:10.573Z,0
2017-12-15T06:08:36.071Z,0
2017-12-15T06:09:01.513Z,0
2017-12-15T06:09:27.045Z,0
2017-12-15T06:09:52.556Z,0
2017-12-15T06:10:18.029Z,0
2017-12-15T06:10:43.536Z,0
2017-12-15T06:11:09.021Z,0
2017-12-15T06:11:34.527Z,0
2017-12-15T06:12:00.016Z,0
2017-12-15T06:12:25.478Z,0
2017-12-15T06:12:50.943Z,0
2017-12-15T06:13:16.442Z,0
2017-12-15T06:13:41.918Z,0
2017-12-15T06:14:07.379Z,0
2017-12-15T06:14:32.854Z,0
2017-12-15T06:14:58.354Z,0
2017-12-15T06:15:23.879Z,0
2017-12-15T06:15:49.376Z,0
2017-12-15T06:16:14.860Z,0
2017-12-15T06:16:40.371Z,0
2017-12-15T06:17:05.841Z,0
2017-12-15T06:17:31.331Z,0
2017-12-15T06:17:56.804Z,0
2017-12-15T06:18:22.304Z,0
2017-12-15T06:18:47.804Z,0
2017-12-15T06:19:13.294Z,0
2017-12-15T06:19:38.806Z,0
2017-12-15T06:20:04.320Z,0
2017-12-15T06:20:29.834Z,0
2017-12-15T06:20:55.296Z,0
2017-12-15T06:21:20.835Z,0
2017-12-15T06:21:46.347Z,0
2017-12-15T06:22:11.875Z,0
2017-12-15T06:22:37.363Z,0
2017-12-15T06:23:02.853Z,0
2017-12-15T06:23:28.313Z,0
2017-12-15T06:23:53.846Z,0
2017-12-15T06:24:19.365Z,0
2017-12-15T06:24:44.863Z,0
2017-12-15T06:25:10.377Z,0
2017-12-15T06:25:35.864Z,0
2017-12-15T06:26:01.379Z,0
2017-12-15T06:27:26.421Z,0
2017-12-15T06:27:51.902Z,0
2017-12-15T06:28:17.389Z,0
2017-12-15T06:28:42.854Z,0
2017-12-15T06:29:08.350Z,0
2017-12-15T06:29:33.840Z,0
2017-12-15T06:29:59.326Z,0
2017-12-15T06:30:24.822Z,0
2017-12-15T06:30:50.301Z,0
2017-12-15T06:31:15.799Z,0
2017-12-15T06:31:41.259Z,0
2017-12-15T06:32:06.779Z,0
2017-12-15T06:32:32.267Z,0
2017-12-15T06:32:57.751Z,0
2017-12-15T06:33:23.251Z,0
2017-12-15T06:33:48.753Z,0
2017-12-15T06:34:14.221Z,0
2017-12-15T06:34:39.707Z,0
2017-12-15T06:35:05.205Z,0
2017-12-15T06:35:30.709Z,0
2017-12-15T06:35:56.197Z,0
2017-12-15T06:36:21.744Z,0
2017-12-15T06:36:47.211Z,0
2017-12-15T06:37:12.712Z,0
2017-12-15T06:37:38.185Z,0
2017-12-15T06:38:03.725Z,0
2017-12-15T06:38:29.251Z,0
2017-12-15T06:38:54.721Z,0
2017-12-15T06:40:23.821Z,0
2017-12-15T06:40:49.325Z,0
2017-12-15T06:41:14.810Z,0
2017-12-15T06:41:40.310Z,0
2017-12-15T06:42:05.804Z,0
2017-12-15T06:42:31.281Z,0
2017-12-15T06:42:56.783Z,0
2017-12-15T06:43:22.296Z,0
2017-12-15T06:43:47.790Z,0
2017-12-15T06:44:13.301Z,0
2017-12-15T06:44:38.806Z,0
2017-12-15T06:45:04.279Z,0
2017-12-15T06:45:29.779Z,0
2017-12-15T06:45:55.270Z,0
2017-12-15T06:46:20.782Z,0
2017-12-15T06:46:46.277Z,0
2017-12-15T06:47:11.814Z,0
2017-12-15T06:47:37.299Z,0
2017-12-15T06:48:02.769Z,0
2017-12-15T06:49:16.587Z,0
2017-12-15T06:49:42.090Z,0
2017-12-15T06:50:07.571Z,0
2017-12-15T06:50:33.074Z,0
2017-12-15T06:50:58.548Z,0
2017-12-15T06:51:24.043Z,0
2017-12-15T06:51:49.557Z,0
2017-12-15T06:52:15.040Z,0
2017-12-15T06:52:40.546Z,0
2017-12-15T06:53:06.024Z,0
2017-12-15T06:53:31.505Z,0
2017-12-15T06:53:56.986Z,0
2017-12-15T06:54:22.482Z,0
2017-12-15T06:54:47.963Z,0
2017-12-15T06:55:13.443Z,0
2017-12-15T06:55:38.935Z,0
2017-12-15T06:56:04.433Z,0
2017-12-15T06:56:29.892Z,0
2017-12-15T06:56:55.397Z,0
2017-12-15T06:57:20.886Z,0
2017-12-15T06:57:46.349Z,0
2017-12-15T06:58:11.825Z,0
2017-12-15T06:58:37.345Z,0
2017-12-15T06:59:02.819Z,0
2017-12-15T06:59:28.296Z,0
2017-12-15T06:59:53.801Z,0
2017-12-15T07:00:19.280Z,0
2017-12-15T07:00:44.761Z,0
2017-12-15T07:01:10.276Z,0
2017-12-15T07:01:35.780Z,0
2017-12-15T07:02:01.303Z,0
2017-12-15T07:02:26.796Z,0
2017-12-15T07:02:52.299Z,0
2017-12-15T07:03:17.797Z,0
2017-12-15T07:03:43.309Z,0
2017-12-15T07:04:08.834Z,0
2017-12-15T07:04:34.343Z,0
2017-12-15T07:05:48.140Z,0
2017-12-15T07:06:13.647Z,0
2017-12-15T07:06:39.182Z,0
2017-12-15T07:07:04.675Z,0
2017-12-15T07:07:30.167Z,0
2017-12-15T07:07:55.665Z,0
2017-12-15T07:08:21.153Z,0
2017-12-15T07:08:46.647Z,0
2017-12-15T07:09:12.142Z,0
2017-12-15T07:09:37.634Z,0
2017-12-15T07:10:03.108Z,0
2017-12-15T07:10:28.606Z,0
2017-12-15T07:10:54.098Z,0
2017-12-15T07:11:19.582Z,0
2017-12-15T07:11:45.082Z,0
2017-12-15T07:12:10.590Z,0
2017-12-15T07:12:36.091Z,0
2017-12-15T07:13:01.585Z,0
2017-12-15T07:13:27.083Z,0
2017-12-15T07:13:52.594Z,0
2017-12-15T07:14:18.080Z,0
2017-12-15T07:14:43.558Z,0
2017-12-15T07:15:09.049Z,0
2017-12-15T07:15:34.534Z,0
2017-12-15T07:16:00.063Z,0
2017-12-15T07:16:25.574Z,0
2017-12-15T07:16:51.056Z,0
2017-12-15T07:17:16.526Z,0
2017-12-15T07:17:41.988Z,0
2017-12-15T07:18:07.499Z,0
2017-12-15T07:18:32.958Z,0
2017-12-15T07:18:58.438Z,0
2017-12-15T07:19:23.909Z,0
2017-12-15T07:19:49.389Z,0
2017-12-15T07:20:14.885Z,0
2017-12-15T07:20:40.361Z,0
2017-12-15T07:21:05.845Z,0
2017-12-15T07:21:31.364Z,0
2017-12-15T07:21:56.841Z,0
2017-12-15T07:22:22.333Z,0
2017-12-15T07:22:47.844Z,0
2017-12-15T07:23:13.337Z,0
2017-12-15T07:23:38.833Z,0
2017-12-15T07:24:04.349Z,0
2017-12-15T07:24:29.861Z,0
2017-12-15T07:24:55.350Z,0
2017-12-15T07:25:20.841Z,0
2017-12-15T07:26:49.906Z,0
2017-12-15T07:27:15.404Z,0
2017-12-15T07:27:40.904Z,0
2017-12-15T07:28:06.403Z,0
2017-12-15T07:28:31.921Z,0
2017-12-15T07:28:57.388Z,0
2017-12-15T07:29:22.882Z,0
2017-12-15T07:29:48.383Z,0
2017-12-15T07:30:13.877Z,0
2017-12-15T07:30:39.405Z,0
2017-12-15T07:31:04.900Z,0
2017-12-15T07:31:30.363Z,0
2017-12-15T07:31:55.869Z,0
2017-12-15T07:32:21.338Z,0
2017-12-15T07:32:46.828Z,0
2017-12-15T07:33:12.327Z,0
2017-12-15T07:33:37.842Z,0
2017-12-15T07:34:03.350Z,0
2017-12-15T07:34:28.859Z,0
2017-12-15T07:34:54.386Z,0
2017-12-15T07:35:19.914Z,5
2017-12-15T07:35:45.428Z,5
2017-12-15T07:36:10.929Z,5
2017-12-15T07:36:36.410Z,5
2017-12-15T07:37:01.944Z,5
2017-12-15T07:37:27.440Z,5
2017-12-15T07:37:52.957Z,5
2017-12-15T07:38:18.436Z,5
2017-12-15T07:38:43.937Z,5
2017-12-15T07:39:09.448Z,5
2017-12-15T07:39:34.962Z,5
2017-12-15T07:40:00.425Z,5
2017-12-15T07:40:25.909Z,5
2017-12-15T07:40:51.402Z,5
2017-12-15T07:41:16.887Z,5
2017-12-15T07:41:42.376Z,5
2017-12-15T07:42:07.858Z,5
2017-12-15T07:42:33.377Z,5
2017-12-15T07:42:58.879Z,10
2017-12-15T07:43:24.341Z,10
2017-12-15T07:43:49.832Z,10
2017-12-15T07:44:15.334Z,10
2017-12-15T07:44:40.824Z,10
2017-12-15T07:45:06.310Z,10
2017-12-15T07:45:31.794Z,10
2017-12-15T07:45:57.317Z,10
2017-12-15T07:47:26.401Z,5
2017-12-15T07:47:51.891Z,5
2017-12-15T07:48:17.396Z,5
2017-12-15T07:48:42.882Z,5
2017-12-15T07:49:08.379Z,5
2017-12-15T07:49:33.852Z,5
2017-12-15T07:49:59.378Z,5
2017-12-15T07:50:24.904Z,5
2017-12-15T07:50:50.417Z,5
2017-12-15T07:51:15.896Z,5
2017-12-15T07:51:41.380Z,5
2017-12-15T07:52:50.095Z,5
2017-12-15T07:53:15.599Z,5
2017-12-15T07:53:41.084Z,10
2017-12-15T07:54:06.576Z,10
2017-12-15T07:54:32.095Z,10
2017-12-15T07:54:57.590Z,10
2017-12-15T07:55:23.093Z,10
2017-12-15T07:55:48.596Z,10
2017-12-15T07:56:14.090Z,10
2017-12-15T07:56:39.586Z,10
2017-12-15T07:57:05.084Z,10
2017-12-15T07:57:30.576Z,10
2017-12-15T07:57:56.052Z,10
2017-12-15T07:58:21.546Z,5
2017-12-15T07:58:47.052Z,10
2017-12-15T07:59:12.541Z,10
2017-12-15T07:59:38.041Z,10
2017-12-15T08:00:03.558Z,10
2017-12-15T08:00:29.025Z,10
2017-12-15T08:00:54.530Z,10
2017-12-15T08:01:20.013Z,10
2017-12-15T08:01:45.499Z,10
2017-12-15T08:02:11.080Z,10
2017-12-15T08:03:29.967Z,10
2017-12-15T08:03:55.484Z,10
2017-12-15T08:04:20.973Z,10
2017-12-15T08:04:46.459Z,10
2017-12-15T08:05:11.950Z,10
2017-12-15T08:05:37.435Z,10
2017-12-15T08:06:02.918Z,10
2017-12-15T08:06:28.429Z,10
2017-12-15T08:06:53.961Z,10
2017-12-15T08:07:19.458Z,15
2017-12-15T08:07:44.947Z,15
2017-12-15T08:08:10.457Z,15
2017-12-15T08:08:35.921Z,20
2017-12-15T08:09:01.434Z,20
2017-12-15T08:09:26.939Z,15
2017-12-15T08:09:52.485Z,15
2017-12-15T08:10:17.940Z,15
2017-12-15T08:10:43.401Z,20
2017-12-15T08:11:08.907Z,20
2017-12-15T08:11:34.407Z,20
2017-12-15T08:11:59.922Z,20
2017-12-15T08:12:25.406Z,20
2017-12-15T08:12:50.884Z,25
2017-12-15T08:13:16.391Z,25
2017-12-15T08:13:41.910Z,25
2017-12-15T08:14:07.386Z,30
2017-12-15T08:14:32.885Z,25
2017-12-15T08:14:58.360Z,25
2017-12-15T08:15:23.841Z,25
2017-12-15T08:15:49.330Z,25
2017-12-15T08:16:14.813Z,25
2017-12-15T08:16:40.316Z,25
2017-12-15T08:17:05.793Z,25
2017-12-15T08:17:31.281Z,20
2017-12-15T08:17:56.760Z,20
2017-12-15T08:18:22.283Z,20
2017-12-15T08:18:47.774Z,20
2017-12-15T08:19:13.273Z,20
2017-12-15T08:19:38.770Z,20
2017-12-15T08:20:04.275Z,20
2017-12-15T08:20:29.789Z,20
2017-12-15T08:20:55.280Z,20
2017-12-15T08:21:20.794Z,20
2017-12-15T08:21:46.320Z,20
2017-12-15T08:22:11.782Z,20
2017-12-15T08:22:37.285Z,20
2017-12-15T08:23:02.757Z,20
2017-12-15T08:23:28.260Z,20
2017-12-15T08:23:53.741Z,20
2017-12-15T08:24:19.276Z,20
2017-12-15T08:24:44.766Z,15
2017-12-15T08:25:10.274Z,15
2017-12-15T08:25:35.749Z,15
2017-12-15T08:26:01.300Z,15
2017-12-15T08:26:26.790Z,15
2017-12-15T08:26:52.302Z,15
2017-12-15T08:27:17.812Z,15
2017-12-15T08:27:43.297Z,15
2017-12-15T08:28:08.792Z,15
2017-12-15T08:28:34.283Z,15
2017-12-15T08:28:59.798Z,15
2017-12-15T08:29:25.279Z,15
2017-12-15T08:29:50.828Z,15
2017-12-15T08:30:16.337Z,15
2017-12-15T08:30:41.834Z,20
2017-12-15T08:31:07.317Z,20
2017-12-15T08:31:32.802Z,20
2017-12-15T08:31:58.313Z,20
2017-12-15T08:32:23.842Z,20
2017-12-15T08:32:49.305Z,20
2017-12-15T08:33:14.803Z,20
2017-12-15T08:33:40.305Z,20
2017-12-15T08:34:05.806Z,20
2017-12-15T08:34:31.334Z,20
2017-12-15T08:34:56.802Z,20
2017-12-15T08:35:22.330Z,20
2017-12-15T08:35:47.812Z,20
2017-12-15T08:37:01.623Z,25
2017-12-15T08:37:27.121Z,25
2017-12-15T08:37:52.619Z,25
2017-12-15T08:38:18.119Z,25
2017-12-15T08:38:43.608Z,25
2017-12-15T08:39:09.115Z,25
2017-12-15T08:39:34.595Z,25
2017-12-15T08:40:00.099Z,30
2017-12-15T08:40:25.581Z,30
2017-12-15T08:40:51.083Z,30
2017-12-15T08:41:16.594Z,30
2017-12-15T08:41:42.106Z,30
2017-12-15T08:42:07.608Z,30
2017-12-15T08:42:33.105Z,30
2017-12-15T08:42:58.599Z,30
2017-12-15T08:43:24.097Z,30
2017-12-15T08:43:49.593Z,35
2017-12-15T08:44:15.094Z,30
2017-12-15T08:44:40.591Z,25
2017-12-15T08:45:06.108Z,25
2017-12-15T08:45:31.584Z,30
2017-12-15T08:45:57.076Z,25
2017-12-15T08:46:22.572Z,25
2017-12-15T08:46:48.069Z,25
2017-12-15T08:47:13.556Z,30
2017-12-15T08:47:39.059Z,30
2017-12-15T08:48:04.558Z,35
2017-12-15T08:48:30.100Z,35
2017-12-15T08:48:55.547Z,35
2017-12-15T08:49:21.008Z,35
2017-12-15T08:49:46.494Z,35
2017-12-15T08:50:11.986Z,35
2017-12-15T08:50:37.457Z,30
2017-12-15T08:51:02.951Z,30
2017-12-15T08:51:28.443Z,30
2017-12-15T08:51:53.935Z,30
2017-12-15T08:52:19.402Z,30
2017-12-15T08:52:44.921Z,35
2017-12-15T08:53:10.428Z,35
2017-12-15T08:53:35.925Z,40
2017-12-15T08:54:01.438Z,40
2017-12-15T08:54:26.975Z,40
2017-12-15T08:54:52.473Z,35
2017-12-15T08:55:17.981Z,35
2017-12-15T08:55:43.458Z,35
2017-12-15T08:56:08.944Z,35
2017-12-15T08:56:34.435Z,35
2017-12-15T08:56:59.923Z,35
2017-12-15T08:57:25.460Z,40
2017-12-15T08:57:50.924Z,35
2017-12-15T08:58:16.415Z,35
2017-12-15T08:58:41.898Z,35
2017-12-15T08:59:07.402Z,35
2017-12-15T08:59:32.864Z,30
2017-12-15T08:59:58.367Z,30
2017-12-15T09:00:23.876Z,30
2017-12-15T09:00:49.387Z,30
2017-12-15T09:01:14.890Z,30
2017-12-15T09:01:40.389Z,35
2017-12-15T09:02:05.903Z,35
2017-12-15T09:02:31.416Z,35
2017-12-15T09:02:56.987Z,40
2017-12-15T09:03:22.478Z,40
2017-12-15T09:03:47.962Z,40
2017-12-15T09:04:13.478Z,45
2017-12-15T09:04:38.972Z,45
2017-12-15T09:05:04.465Z,45
2017-12-15T09:05:29.967Z,45
2017-12-15T09:05:55.470Z,45
2017-12-15T09:06:20.969Z,45
2017-12-15T09:06:46.467Z,50
2017-12-15T09:07:11.983Z,45
2017-12-15T09:07:37.473Z,45
2017-12-15T09:08:02.960Z,45
2017-12-15T09:08:28.456Z,45
2017-12-15T09:08:53.943Z,40
2017-12-15T09:09:19.453Z,40
2017-12-15T09:09:44.939Z,35
2017-12-15T09:10:10.449Z,35
2017-12-15T09:10:35.955Z,30
2017-12-15T09:11:01.454Z,35
2017-12-15T09:11:26.943Z,35
2017-12-15T09:11:52.428Z,35
2017-12-15T09:12:17.950Z,35
2017-12-15T09:12:43.415Z,40
2017-12-15T09:13:08.894Z,40
2017-12-15T09:14:27.808Z,45
2017-12-15T09:14:53.322Z,40
2017-12-15T09:15:18.830Z,40
2017-12-15T09:15:44.322Z,40
2017-12-15T09:16:09.784Z,40
2017-12-15T09:16:35.271Z,40
2017-12-15T09:17:00.755Z,40
2017-12-15T09:17:26.259Z,45
2017-12-15T09:17:51.756Z,50
2017-12-15T09:18:17.247Z,50
2017-12-15T09:19:41.277Z,50
2017-12-15T09:20:06.784Z,50
2017-12-15T09:20:32.267Z,50
2017-12-15T09:20:57.745Z,50
2017-12-15T09:21:23.230Z,50
2017-12-15T09:21:48.720Z,50
2017-12-15T09:22:14.208Z,50
2017-12-15T09:22:39.698Z,50
2017-12-15T09:23:05.241Z,50
2017-12-15T09:23:30.712Z,50
2017-12-15T09:23:56.190Z,50
2017-12-15T09:24:21.693Z,50
2017-12-15T09:24:47.187Z,55
2017-12-15T09:25:12.653Z,60
2017-12-15T09:25:38.198Z,60
2017-12-15T09:26:03.602Z,60
2017-12-15T09:26:29.078Z,60
2017-12-15T09:26:54.549Z,60
2017-12-15T09:27:20.051Z,60
2017-12-15T09:27:45.581Z,65
2017-12-15T09:28:11.089Z,65
2017-12-15T09:28:36.579Z,65
2017-12-15T09:29:02.070Z,70
2017-12-15T09:29:27.565Z,70
2017-12-15T09:29:53.071Z,70
2017-12-15T09:30:18.566Z,75
2017-12-15T09:30:44.063Z,75
2017-12-15T09:31:09.567Z,80
2017-12-15T09:31:35.046Z,85
2017-12-15T09:32:00.529Z,85
2017-12-15T09:32:26.029Z,85
2017-12-15T09:32:51.504Z,90
2017-12-15T09:33:17.010Z,95
2017-12-15T09:33:42.515Z,95
2017-12-15T09:34:07.991Z,90
2017-12-15T09:34:33.475Z,90
2017-12-15T09:34:58.983Z,85
2017-12-15T09:35:24.481Z,85
2017-12-15T09:35:49.963Z,85
2017-12-15T09:36:15.433Z,80
2017-12-15T09:36:40.949Z,75
2017-12-15T09:37:06.497Z,70
2017-12-15T09:37:31.943Z,70
2017-12-15T09:37:57.466Z,70
2017-12-15T09:38:22.956Z,70
2017-12-15T09:39:37.749Z,75
2017-12-15T09:40:03.263Z,75
2017-12-15T09:40:28.755Z,75
2017-12-15T09:40:54.272Z,75
2017-12-15T09:41:19.750Z,80
2017-12-15T09:41:45.269Z,85
2017-12-15T09:42:10.762Z,90
2017-12-15T09:42:36.258Z,95
2017-12-15T09:43:01.778Z,95
2017-12-15T09:43:27.265Z,90
2017-12-15T09:43:52.833Z,90
2017-12-15T09:44:18.273Z,95
2017-12-15T09:44:43.763Z,95
2017-12-15T09:45:09.257Z,95
2017-12-15T09:45:34.733Z,100
2017-12-15T09:46:00.239Z,100
2017-12-15T09:46:25.733Z,105
2017-12-15T09:46:51.241Z,100
2017-12-15T09:47:16.718Z,100
2017-12-15T09:47:42.218Z,100
2017-12-15T09:48:07.717Z,100
2017-12-15T09:48:33.191Z,95
2017-12-15T09:48:58.697Z,100
2017-12-15T09:49:24.187Z,100
2017-12-15T09:49:49.683Z,95
2017-12-15T09:50:15.179Z,100
2017-12-15T09:50:40.675Z,100
2017-12-15T09:51:06.148Z,100
2017-12-15T09:51:31.666Z,100
2017-12-15T09:51:57.117Z,100
2017-12-15T09:52:22.601Z,105
2017-12-15T09:52:48.113Z,105
2017-12-15T09:53:13.637Z,105
2017-12-15T09:53:39.116Z,110
2017-12-15T09:54:04.608Z,105
2017-12-15T09:54:30.123Z,105
2017-12-15T09:54:55.626Z,100
2017-12-15T09:55:21.078Z,100
2017-12-15T09:55:46.549Z,95
2017-12-15T09:56:12.022Z,90
2017-12-15T09:56:37.522Z,85
2017-12-15T09:57:02.985Z,85
2017-12-15T09:57:28.505Z,85
2017-12-15T09:57:53.976Z,85
2017-12-15T09:58:19.468Z,80
2017-12-15T09:58:44.982Z,80
2017-12-15T09:59:10.485Z,80
2017-12-15T09:59:35.953Z,75
2017-12-15T10:00:01.459Z,70
2017-12-15T10:00:26.953Z,70
2017-12-15T10:00:52.441Z,65
2017-12-15T10:01:17.943Z,65
2017-12-15T10:01:43.451Z,65
2017-12-15T10:02:08.984Z,65
2017-12-15T10:02:34.497Z,65
2017-12-15T10:02:59.986Z,70
2017-12-15T10:03:25.490Z,75
2017-12-15T10:03:50.995Z,75
2017-12-15T10:04:16.495Z,75
2017-12-15T10:04:42.027Z,75
2017-12-15T10:05:07.488Z,75
2017-12-15T10:06:26.416Z,80
2017-12-15T10:06:51.902Z,80
2017-12-15T10:07:17.378Z,80
2017-12-15T10:07:42.897Z,80
2017-12-15T10:08:08.356Z,80
2017-12-15T10:08:33.860Z,80
2017-12-15T10:08:59.348Z,75
2017-12-15T10:10:08.067Z,75
2017-12-15T10:10:33.563Z,75
2017-12-15T10:10:59.039Z,75
2017-12-15T10:11:24.506Z,80
2017-12-15T10:11:49.977Z,85
2017-12-15T10:12:15.474Z,85
2017-12-15T10:12:40.970Z,90
2017-12-15T10:13:06.466Z,90
2017-12-15T10:13:31.968Z,95
2017-12-15T10:13:57.442Z,95
2017-12-15T10:14:22.944Z,100
2017-12-15T10:14:48.450Z,100
2017-12-15T10:15:13.944Z,105
2017-12-15T10:15:39.439Z,105
2017-12-15T10:16:04.940Z,110
2017-12-15T10:16:30.436Z,115
2017-12-15T10:16:55.908Z,120
2017-12-15T10:17:21.443Z,130
2017-12-15T10:17:46.921Z,130
2017-12-15T10:18:12.462Z,135
2017-12-15T10:18:37.913Z,135
2017-12-15T10:19:03.429Z,140
2017-12-15T10:19:28.910Z,140
2017-12-15T10:19:54.412Z,140
2017-12-15T10:20:19.910Z,140
2017-12-15T10:20:45.403Z,140
2017-12-15T10:21:10.903Z,140
2017-12-15T10:21:36.379Z,140
2017-12-15T10:22:01.872Z,140
2017-12-15T10:22:27.376Z,140
2017-12-15T10:22:52.900Z,135
2017-12-15T10:23:18.380Z,135
2017-12-15T10:23:43.901Z,135
2017-12-15T10:24:09.422Z,135
2017-12-15T10:24:34.935Z,135
2017-12-15T10:25:00.397Z,135
2017-12-15T10:25:25.860Z,135
2017-12-15T10:25:51.373Z,135
2017-12-15T10:26:16.871Z,135
2017-12-15T10:26:42.400Z,135
2017-12-15T10:27:07.879Z,135
2017-12-15T10:27:33.420Z,140
2017-12-15T10:27:58.921Z,140
2017-12-15T10:28:24.404Z,140
2017-12-15T10:28:49.906Z,140
2017-12-15T10:29:15.411Z,140
2017-12-15T10:29:40.921Z,145
2017-12-15T10:30:06.383Z,145
2017-12-15T10:30:31.879Z,145
2017-12-15T10:30:57.374Z,145
2017-12-15T10:31:22.876Z,145
2017-12-15T10:31:48.406Z,145
2017-12-15T10:32:13.897Z,140
2017-12-15T10:32:39.419Z,145
2017-12-15T10:33:04.862Z,145
2017-12-15T10:33:30.378Z,145
2017-12-15T10:33:55.857Z,145
2017-12-15T10:34:21.354Z,145
2017-12-15T10:34:46.879Z,145
2017-12-15T10:35:12.384Z,140
2017-12-15T10:35:37.856Z,135
2017-12-15T10:36:03.386Z,135
2017-12-15T10:36:28.811Z,135
2017-12-15T10:36:54.356Z,135
2017-12-15T10:38:13.268Z,135
2017-12-15T10:38:38.769Z,135
2017-12-15T10:39:04.241Z,130
2017-12-15T10:39:29.734Z,130
2017-12-15T10:39:55.229Z,130
2017-12-15T10:40:20.697Z,130
2017-12-15T10:40:46.172Z,130
2017-12-15T10:41:11.629Z,130
2017-12-15T10:41:37.107Z,130
2017-12-15T10:42:02.580Z,130
2017-12-15T10:42:28.054Z,135
2017-12-15T10:42:53.552Z,135
2017-12-15T10:43:19.044Z,140
2017-12-15T10:43:44.505Z,140
2017-12-15T10:44:10.039Z,140
2017-12-15T10:44:35.531Z,145
2017-12-15T10:45:01.054Z,145
2017-12-15T10:45:26.554Z,145
2017-12-15T10:45:52.043Z,145
2017-12-15T10:47:00.751Z,150
2017-12-15T10:47:26.271Z,150
2017-12-15T10:47:51.765Z,150
2017-12-15T10:48:17.256Z,150
2017-12-15T10:48:42.755Z,145
2017-12-15T10:49:08.252Z,145
2017-12-15T10:49:33.751Z,145
2017-12-15T10:49:59.232Z,145
2017-12-15T10:51:07.935Z,145
2017-12-15T10:51:33.433Z,145
2017-12-15T10:51:58.924Z,140
2017-12-15T10:52:24.403Z,140
2017-12-15T10:52:49.897Z,140
2017-12-15T10:53:15.377Z,140
2017-12-15T10:53:40.860Z,135
2017-12-15T10:54:06.377Z,135
2017-12-15T10:54:31.849Z,135
2017-12-15T10:54:57.350Z,135
2017-12-15T10:55:22.854Z,135
2017-12-15T10:55:48.328Z,130
2017-12-15T10:56:13.826Z,130
2017-12-15T10:56:39.300Z,130
2017-12-15T10:57:04.765Z,130
2017-12-15T10:57:30.299Z,130
2017-12-15T10:57:55.785Z,130
2017-12-15T10:58:21.272Z,135
2017-12-15T10:58:46.742Z,135
2017-12-15T10:59:12.211Z,135
2017-12-15T10:59:37.708Z,135
2017-12-15T11:00:03.206Z,135
2017-12-15T11:00:28.692Z,130
2017-12-15T11:00:54.193Z,130
2017-12-15T11:01:19.674Z,130
2017-12-15T11:01:45.187Z,125
2017-12-15T11:02:10.678Z,125
2017-12-15T11:02:36.190Z,125
2017-12-15T11:03:01.684Z,125
2017-12-15T11:03:27.194Z,125
2017-12-15T11:03:52.705Z,125
2017-12-15T11:04:18.179Z,130
2017-12-15T11:04:43.677Z,125
2017-12-15T11:05:09.176Z,125
2017-12-15T11:06:28.099Z,135
2017-12-15T11:06:53.601Z,135
2017-12-15T11:07:19.101Z,135
2017-12-15T11:07:44.611Z,135
2017-12-15T11:08:10.095Z,135
2017-12-15T11:08:35.618Z,135
2017-12-15T11:09:01.082Z,140
2017-12-15T11:09:26.592Z,140
2017-12-15T11:09:52.060Z,140
2017-12-15T11:10:17.572Z,140
2017-12-15T11:10:43.032Z,145
2017-12-15T11:11:08.532Z,145
2017-12-15T11:11:33.996Z,150
2017-12-15T11:11:59.495Z,150
2017-12-15T11:12:24.982Z,150
2017-12-15T11:12:50.542Z,150
2017-12-15T11:13:16.026Z,145
2017-12-15T11:13:41.523Z,145
2017-12-15T11:15:10.598Z,140
2017-12-15T11:15:36.098Z,140
2017-12-15T11:16:01.582Z,140
2017-12-15T11:16:27.070Z,145
2017-12-15T11:16:52.548Z,140
2017-12-15T11:17:18.071Z,135
2017-12-15T11:17:43.550Z,135
2017-12-15T11:18:09.064Z,135
2017-12-15T11:18:34.591Z,140
2017-12-15T11:19:00.077Z,145
2017-12-15T11:19:25.571Z,150
2017-12-15T11:19:51.081Z,150
2017-12-15T11:20:16.583Z,150
2017-12-15T11:20:42.075Z,150
2017-12-15T11:21:07.739Z,155
2017-12-15T11:21:33.191Z,155
2017-12-15T11:21:58.694Z,155
2017-12-15T11:22:24.157Z,155
2017-12-15T11:22:49.627Z,155
2017-12-15T11:23:15.126Z,150
2017-12-15T11:23:40.630Z,150
2017-12-15T11:24:06.140Z,150
2017-12-15T11:24:31.623Z,150
2017-12-15T11:24:57.114Z,150
2017-12-15T11:26:26.236Z,145
2017-12-15T11:26:51.720Z,145
2017-12-15T11:27:17.218Z,140
2017-12-15T11:27:42.727Z,145
2017-12-15T11:28:08.225Z,145
2017-12-15T11:28:33.728Z,145
2017-12-15T11:28:59.234Z,140